Nordic Odin — 3EGY8 — position and weather

sailwx.info

Track history (hours):
 
Tides and Currents Weather Stations Pressure Air Temp Water Temp Dewpoint Dewpoint Depression Visibility Wind Speed Wind Dir Waves Ship Positions

Nordic Odin

Last reported at 2017-Dec-17 13:02 UTC. Time now 2017-Dec-17 19:30 UTC.
Position N 49°49' W 002°47'.

Length 225 m; draft 13.4 m.

Type: Cargo ship. MMSI: 356364000.

Date/timePositionNaut miles runAvg speedWind from/ knotsBaromVisibWave heightAir tempDewpointWater temp
2017-Dec-17 13:02N 49°49' W 002°47'0 9.7
2017-Dec-17 13:00N 49°49' W 002°48'1210.0
2017-Dec-17 11:50N 49°44' W 003°05'10111.5
2017-Dec-17 03:02N 48°53' W 005°19'112.9
2017-Dec-17 02:57N 48°53' W 005°21'612.9
2017-Dec-17 02:29N 48°50' W 005°28'5911.7
2017-Dec-16 21:25N 47°59' W 006°14'810.4
2017-Dec-16 20:38N 47°52' W 006°20'1210.0
2017-Dec-16 19:24N 47°41' W 006°28'6 9.8
2017-Dec-16 18:50N 47°36' W 006°32'9 9.9
2017-Dec-16 17:52N 47°27' W 006°38'610.6
2017-Dec-16 17:21N 47°22' W 006°42'1110.8
2017-Dec-16 16:19N 47°12' W 006°50'  
2017-Dec-11 14:26N 28°51' W 015°35'511.9
2017-Dec-11 13:58N 28°46' W 015°37'611.9
2017-Dec-11 13:29N 28°41' W 015°39'511.6
2017-Dec-11 13:00N 28°35' W 015°41'611.6
2017-Dec-11 12:29N 28°31' W 015°45'611.5
2017-Dec-11 12:00N 28°26' W 015°49'611.6
2017-Dec-11 11:30N 28°22' W 015°53'611.8
2017-Dec-11 11:00N 28°17' W 015°58'611.5
2017-Dec-11 10:28N 28°12' W 016°02'711.7
2017-Dec-11 09:52N 28°07' W 016°07'1712.0
2017-Dec-11 08:27N 27°52' W 016°16'612.1
2017-Dec-11 07:58N 27°47' W 016°18'  
Track history (hours):
 
Tides and Currents Weather Stations Pressure Air Temp Water Temp Dewpoint Dewpoint Depression Visibility Wind Speed Wind Dir Waves Ship Positions

Nordic Odin

Last reported at 2017-Dec-17 13:02 UTC. Time now 2017-Dec-17 19:30 UTC.
Position N 49°49' W 002°47'.

Length 225 m; draft 13.4 m.

Type: Cargo ship. MMSI: 356364000.

Date/timePositionNaut miles runAvg speedWind from/ knotsBaromVisibWave heightAir tempDewpointWater temp
2017-Dec-17 13:02N 49°49' W 002°47'0 9.7
2017-Dec-17 13:00N 49°49' W 002°48'1210.0
2017-Dec-17 11:50N 49°44' W 003°05'10111.5
2017-Dec-17 03:02N 48°53' W 005°19'112.9
2017-Dec-17 02:57N 48°53' W 005°21'612.9
2017-Dec-17 02:29N 48°50' W 005°28'5911.7
2017-Dec-16 21:25N 47°59' W 006°14'810.4
2017-Dec-16 20:38N 47°52' W 006°20'1210.0
2017-Dec-16 19:24N 47°41' W 006°28'6 9.8
2017-Dec-16 18:50N 47°36' W 006°32'9 9.9
2017-Dec-16 17:52N 47°27' W 006°38'610.6
2017-Dec-16 17:21N 47°22' W 006°42'1110.8
2017-Dec-16 16:19N 47°12' W 006°50'  
2017-Dec-11 14:26N 28°51' W 015°35'511.9
2017-Dec-11 13:58N 28°46' W 015°37'611.9
2017-Dec-11 13:29N 28°41' W 015°39'511.6
2017-Dec-11 13:00N 28°35' W 015°41'611.6
2017-Dec-11 12:29N 28°31' W 015°45'611.5
2017-Dec-11 12:00N 28°26' W 015°49'611.6
2017-Dec-11 11:30N 28°22' W 015°53'611.8
2017-Dec-11 11:00N 28°17' W 015°58'611.5
2017-Dec-11 10:28N 28°12' W 016°02'711.7
2017-Dec-11 09:52N 28°07' W 016°07'1712.0
2017-Dec-11 08:27N 27°52' W 016°16'612.1
2017-Dec-11 07:58N 27°47' W 016°18'  

Dump ship's entire track history